Observation data for Tatum on 06/24/2019      Previous  Date  Next       Current Mesonet Observations  Soil Data  Daily Summary Page  Observations in Plain Language
KTAT 240500Z 22006KT 18/03 A2996 RMK A01 T01770031  RH  038%=      5-min Rain = 0
KTAT 240505Z 22005KT 18/03 A2996 RMK A01 T01770031  RH  038%=      5-min Rain = 0
KTAT 240510Z 23006KT 18/03 A2996 RMK A01 T01770033  RH  039%=      5-min Rain = 0
KTAT 240515Z 23005KT 18/03 A2995 RMK A01 T01750033  RH  040%=      5-min Rain = 0
KTAT 240520Z 23004KT 18/03 A2996 RMK A01 T01750028  RH  038%=      5-min Rain = 0
KTAT 240525Z 33005G12KT 18/03 A2996 RMK A01 T01770026  RH  037%=      5-min Rain = 0
KTAT 240530Z 36009KT 18/02 A2996 RMK A01 T01820016  RH  034%=      5-min Rain = 0
KTAT 240535Z 35008KT 20/01 A2996 RMK A01 T01980010  RH  029%=      5-min Rain = 0
KTAT 240540Z 35008KT 20/01 A2996 RMK A01 T02010006  RH  027%=      5-min Rain = 0
KTAT 240545Z 35008KT 21/00 A2996 RMK A01 T02080002  RH  026%=      5-min Rain = 0
KTAT 240550Z 35006KT 21/00 A2997 RMK A01 T02100004  RH  026%=      5-min Rain = 0
KTAT 240555Z 35008KT 20/01 A2997 RMK A01 T02020005  RH  027%=      5-min Rain = 0
KTAT 240600Z 35008KT 20/00 A2997 RMK A01 T01970003  RH  028%=      5-min Rain = 0
KTAT 240605Z 35007KT 20/00 A2997 RMK A01 T01950002  RH  028%=      5-min Rain = 0
KTAT 240610Z 35008KT 19/M00 A2997 RMK A01 T01941001  RH  027%=      5-min Rain = 0
KTAT 240615Z 35009KT 20/M01 A2997 RMK A01 T01981005  RH  026%=      5-min Rain = 0
KTAT 240620Z 35009KT 20/M01 A2997 RMK A01 T01991006  RH  025%=      5-min Rain = 0
KTAT 240625Z 35009KT 20/M01 A2997 RMK A01 T01981007  RH  025%=      5-min Rain = 0
KTAT 240630Z 34009KT 20/M01 A2997 RMK A01 T01971010  RH  025%=      5-min Rain = 0
KTAT 240635Z 34008KT 19/M01 A2997 RMK A01 T01921007  RH  026%=      5-min Rain = 0
KTAT 240640Z 34008KT 19/M01 A2998 RMK A01 T01861006  RH  028%=      5-min Rain = 0
KTAT 240645Z 35007KT 18/M01 A2998 RMK A01 T01801005  RH  029%=      5-min Rain = 0
KTAT 240650Z 35007KT 18/M01 A2998 RMK A01 T01771006  RH  029%=      5-min Rain = 0
KTAT 240655Z 34007KT 17/M00 A2998 RMK A01 T01731004  RH  031%=      5-min Rain = 0
KTAT 240700Z 33006KT 17/M00 A2998 RMK A01 T01651003  RH  032%=      5-min Rain = 0
KTAT 240705Z 33006KT 16/M00 A2998 RMK A01 T01611004  RH  033%=      5-min Rain = 0
KTAT 240710Z 33006KT 16/M00 A2998 RMK A01 T01581002  RH  034%=      5-min Rain = 0
KTAT 240715Z 33006KT 16/00 A2997 RMK A01 T015500-0  RH  035%=      5-min Rain = 0
KTAT 240720Z 32006KT 15/00 A2997 RMK A01 T01510000  RH  036%=      5-min Rain = 0
KTAT 240725Z 32007KT 15/00 A2997 RMK A01 T01480001  RH  037%=      5-min Rain = 0
KTAT 240730Z 33007KT 15/00 A2997 RMK A01 T01470000  RH  037%=      5-min Rain = 0
KTAT 240735Z 33007KT 15/00 A2997 RMK A01 T01460001  RH  037%=      5-min Rain = 0
KTAT 240740Z 33007KT 14/00 A2997 RMK A01 T01440002  RH  038%=      5-min Rain = 0
KTAT 240745Z 33006KT 14/00 A2997 RMK A01 T01430001  RH  038%=      5-min Rain = 0
KTAT 240750Z 33006KT 14/00 A2997 RMK A01 T01430000  RH  038%=      5-min Rain = 0
KTAT 240755Z 32006KT 14/00 A2996 RMK A01 T01410001  RH  039%=      5-min Rain = 0
KTAT 240800Z 33007KT 14/00 A2996 RMK A01 T01390000  RH  039%=      5-min Rain = 0
KTAT 240805Z 33008KT 14/M00 A2996 RMK A01 T01401004  RH  038%=      5-min Rain = 0
KTAT 240810Z 33007KT 14/M01 A2996 RMK A01 T01421008  RH  036%=      5-min Rain = 0
KTAT 240815Z 33008KT 14/M01 A2996 RMK A01 T01411010  RH  036%=      5-min Rain = 0
KTAT 240820Z 33008KT 14/M01 A2996 RMK A01 T01421013  RH  035%=      5-min Rain = 0
KTAT 240825Z 33008KT 15/M02 A2996 RMK A01 T01451018  RH  033%=      5-min Rain = 0
KTAT 240830Z 33008KT 15/M02 A2996 RMK A01 T01451019  RH  033%=      5-min Rain = 0
KTAT 240835Z 32008KT 14/M02 A2996 RMK A01 T01421022  RH  032%=      5-min Rain = 0
KTAT 240840Z 33008KT 14/M03 A2996 RMK A01 T01431027  RH  031%=      5-min Rain = 0
KTAT 240845Z 33009KT 15/M04 A2996 RMK A01 T01491042  RH  027%=      5-min Rain = 0
KTAT 240850Z 33008KT 16/M04 A2997 RMK A01 T01581043  RH  025%=      5-min Rain = 0
KTAT 240855Z 32008KT 15/M04 A2996 RMK A01 T01491035  RH  028%=      5-min Rain = 0
KTAT 240900Z 32007KT 15/M04 A2996 RMK A01 T01451036  RH  028%=      5-min Rain = 0
KTAT 240905Z 33008KT 14/M04 A2997 RMK A01 T01441042  RH  027%=      5-min Rain = 0
KTAT 240910Z 34008KT 15/M05 A2997 RMK A01 T01481047  RH  026%=      5-min Rain = 0
KTAT 240915Z 33007KT 15/M05 A2997 RMK A01 T01451046  RH  026%=      5-min Rain = 0
KTAT 240920Z 34007KT 14/M05 A2997 RMK A01 T01441049  RH  026%=      5-min Rain = 0
KTAT 240925Z 34007KT 15/M05 A2997 RMK A01 T01451052  RH  025%=      5-min Rain = 0
KTAT 240930Z 33008KT 14/M05 A2997 RMK A01 T01431052  RH  026%=      5-min Rain = 0
KTAT 240935Z 33008KT 14/M06 A2997 RMK A01 T01401055  RH  025%=      5-min Rain = 0
KTAT 240940Z 33007KT 14/M06 A2997 RMK A01 T01431062  RH  024%=      5-min Rain = 0
KTAT 240945Z 35007KT 15/M07 A2998 RMK A01 T01461065  RH  023%=      5-min Rain = 0
KTAT 240950Z 35008KT 15/M07 A2998 RMK A01 T01481067  RH  022%=      5-min Rain = 0
KTAT 240955Z 35008KT 15/M07 A2998 RMK A01 T01501070  RH  021%=      5-min Rain = 0
KTAT 241000Z 35010KT 15/M07 A2998 RMK A01 T01511071  RH  021%=      5-min Rain = 0
KTAT 241005Z 01011G16KT 15/M07 A2999 RMK A01 T01521069  RH  021%=      5-min Rain = 0
KTAT 241010Z 01012KT 15/M06 A30 RMK A01 T01511062  RH  023%=      5-min Rain = 0
KTAT 241015Z 02012KT 15/M05 A30 RMK A01 T01481052  RH  025%=      5-min Rain = 0
KTAT 241020Z 36011KT 15/M05 A2999 RMK A01 T01451046  RH  027%=      5-min Rain = 0
KTAT 241025Z 00009KT 14/M04 A30 RMK A01 T01421039  RH  028%=      5-min Rain = 0
KTAT 241030Z 35008KT 14/M03 A2999 RMK A01 T01391033  RH  030%=      5-min Rain = 0
KTAT 241035Z 35008KT 14/M03 A2999 RMK A01 T01351026  RH  033%=      5-min Rain = 0
KTAT 241040Z 00008KT 13/M02 A2999 RMK A01 T01331021  RH  035%=      5-min Rain = 0
KTAT 241045Z 01009KT 13/M02 A2999 RMK A01 T01321018  RH  036%=      5-min Rain = 0
KTAT 241050Z 01009KT 13/M01 A30 RMK A01 T01301012  RH  038%=      5-min Rain = 0
KTAT 241055Z 01008KT 13/M01 A30 RMK A01 T01291008  RH  039%=      5-min Rain = 0
KTAT 241100Z 01008KT 13/M01 A30 RMK A01 T01291006  RH  040%=      5-min Rain = 0
KTAT 241105Z 02007KT 13/M00 A30 RMK A01 T01281004  RH  041%=      5-min Rain = 0
KTAT 241110Z 01008KT 13/M00 A30 RMK A01 T01281003  RH  041%=      5-min Rain = 0
KTAT 241115Z 01008KT 13/M00 A30 RMK A01 T01291001  RH  041%=      5-min Rain = 0
KTAT 241120Z 01007KT 13/00 A3001 RMK A01 T01270001  RH  042%=      5-min Rain = 0
KTAT 241125Z 01007KT 13/00 A3001 RMK A01 T01260003  RH  043%=      5-min Rain = 0
KTAT 241130Z 01007KT 13/01 A3001 RMK A01 T01260005  RH  044%=      5-min Rain = 0
KTAT 241135Z 01008KT 13/01 A3001 RMK A01 T01250008  RH  045%=      5-min Rain = 0
KTAT 241140Z 01007KT 13/01 A3002 RMK A01 T01260011  RH  046%=      5-min Rain = 0
KTAT 241145Z 01008KT 13/01 A3002 RMK A01 T01250013  RH  047%=      5-min Rain = 0
KTAT 241150Z 01008KT 13/02 A3002 RMK A01 T01250017  RH  049%=      5-min Rain = 0
KTAT 241155Z 01007KT 12/02 A3002 RMK A01 T01240021  RH  050%=      5-min Rain = 0
KTAT 241200Z 01007KT 13/03 A3002 RMK A01 T01250028  RH  052%=      5-min Rain = 0
KTAT 241205Z 36007KT 13/03 A3003 RMK A01 T01270033  RH  054%=      5-min Rain = 0
KTAT 241210Z 01007KT 13/05 A3003 RMK A01 T01310045  RH  057%=      5-min Rain = 0
KTAT 241215Z 00007KT 13/05 A3003 RMK A01 T01340046  RH  057%=      5-min Rain = 0
KTAT 241220Z 01007KT 13/05 A3003 RMK A01 T01340047  RH  057%=      5-min Rain = 0
KTAT 241225Z 02007KT 14/05 A3004 RMK A01 T01360052  RH  058%=      5-min Rain = 0
KTAT 241230Z 02007KT 14/06 A3004 RMK A01 T01390060  RH  060%=      5-min Rain = 0
KTAT 241235Z 02007KT 15/07 A3004 RMK A01 T01450072  RH  063%=      5-min Rain = 0
KTAT 241240Z 03006KT 15/08 A3004 RMK A01 T01500079  RH  064%=      5-min Rain = 0
KTAT 241245Z 03007KT 16/09 A3004 RMK A01 T01550087  RH  066%=      5-min Rain = 0
KTAT 241250Z 03007KT 16/09 A3004 RMK A01 T01590090  RH  066%=      5-min Rain = 0
KTAT 241255Z 04008KT 16/10 A3005 RMK A01 T01630098  RH  067%=      5-min Rain = 0
KTAT 241300Z 04008KT 17/11 A3005 RMK A01 T01700108  RH  069%=      5-min Rain = 0
KTAT 241305Z 05010KT 18/12 A3005 RMK A01 T01770118  RH  071%=      5-min Rain = 0
KTAT 241310Z 05011G16KT 18/12 A3005 RMK A01 T01790120  RH  071%=      5-min Rain = 0
KTAT 241315Z 05011KT 18/12 A3005 RMK A01 T01810121  RH  071%=      5-min Rain = 0
KTAT 241320Z 06012KT 19/13 A3005 RMK A01 T01850125  RH  071%=      5-min Rain = 0
KTAT 241325Z 07011KT 19/13 A3006 RMK A01 T01900129  RH  070%=      5-min Rain = 0
KTAT 241330Z 07013KT 20/14 A3006 RMK A01 T01950135  RH  071%=      5-min Rain = 0
KTAT 241335Z 07014KT 20/14 A3006 RMK A01 T01990138  RH  071%=      5-min Rain = 0
KTAT 241340Z 07016G23KT 20/14 A3006 RMK A01 T02010141  RH  071%=      5-min Rain = 0
KTAT 241345Z 07014KT 20/14 A3006 RMK A01 T02040142  RH  070%=      5-min Rain = 0
KTAT 241350Z 07014G19KT 21/14 A3006 RMK A01 T02070142  RH  069%=      5-min Rain = 0
KTAT 241355Z 08016KT 21/14 A3006 RMK A01 T02080141  RH  068%=      5-min Rain = 0
KTAT 241400Z 07016KT 21/14 A3006 RMK A01 T02090140  RH  068%=      5-min Rain = 0
KTAT 241405Z 07015KT 21/14 A3006 RMK A01 T02110140  RH  067%=      5-min Rain = 0
KTAT 241410Z 07012G17KT 21/14 A3006 RMK A01 T02130141  RH  066%=      5-min Rain = 0
KTAT 241415Z 08013KT 22/14 A3007 RMK A01 T02170141  RH  064%=      5-min Rain = 0
KTAT 241420Z 08011KT 22/14 A3007 RMK A01 T02200141  RH  064%=      5-min Rain = 0
KTAT 241425Z 08011KT 22/14 A3007 RMK A01 T02230142  RH  063%=      5-min Rain = 0
KTAT 241430Z 07011KT 22/14 A3007 RMK A01 T02230142  RH  063%=      5-min Rain = 0
KTAT 241435Z 07012G17KT 23/14 A3007 RMK A01 T02250142  RH  062%=      5-min Rain = 0
KTAT 241440Z 08012KT 23/14 A3007 RMK A01 T02310142  RH  060%=      5-min Rain = 0
KTAT 241445Z 09012KT 23/14 A3007 RMK A01 T02340141  RH  058%=      5-min Rain = 0
KTAT 241450Z 09013KT 23/14 A3007 RMK A01 T02340141  RH  058%=      5-min Rain = 0
KTAT 241455Z 07013KT 24/14 A3007 RMK A01 T02380142  RH  057%=      5-min Rain = 0
KTAT 241500Z 08014G19KT 24/14 A3007 RMK A01 T02360142  RH  058%=      5-min Rain = 0
KTAT 241505Z 07013KT 24/14 A3007 RMK A01 T02360143  RH  058%=      5-min Rain = 0
KTAT 241510Z 07013KT 24/14 A3007 RMK A01 T02370143  RH  058%=      5-min Rain = 0
KTAT 241515Z 08012G17KT 24/14 A3007 RMK A01 T02390143  RH  057%=      5-min Rain = 0
KTAT 241520Z 07012G17KT 24/14 A3007 RMK A01 T02430143  RH  056%=      5-min Rain = 0
KTAT 241525Z 08011G17KT 24/14 A3007 RMK A01 T02420144  RH  056%=      5-min Rain = 0
KTAT 241530Z 08011G16KT 25/14 A3007 RMK A01 T02460144  RH  055%=      5-min Rain = 0
KTAT 241535Z 07010G15KT 25/14 A3007 RMK A01 T02470144  RH  055%=      5-min Rain = 0
KTAT 241540Z 08010KT 25/14 A3007 RMK A01 T02510144  RH  054%=      5-min Rain = 0
KTAT 241545Z 07010KT 25/14 A3007 RMK A01 T02530143  RH  053%=      5-min Rain = 0
KTAT 241550Z 07009G15KT 25/14 A3006 RMK A01 T02520143  RH  053%=      5-min Rain = 0
KTAT 241555Z 08009KT 26/14 A3006 RMK A01 T02550142  RH  052%=      5-min Rain = 0
KTAT 241600Z 07009KT 26/14 A3006 RMK A01 T02550140  RH  051%=      5-min Rain = 0
KTAT 241605Z 08008KT 26/14 A3006 RMK A01 T02600143  RH  051%=      5-min Rain = 0
KTAT 241610Z 10009KT 26/14 A3006 RMK A01 T02600139  RH  049%=      5-min Rain = 0
KTAT 241615Z 06007G12KT 26/14 A3006 RMK A01 T02640143  RH  049%=      5-min Rain = 0
KTAT 241620Z 08009KT 27/14 A3006 RMK A01 T02660138  RH  047%=      5-min Rain = 0
KTAT 241625Z 09009KT 27/14 A3006 RMK A01 T02690138  RH  046%=      5-min Rain = 0
KTAT 241630Z 07008KT 27/14 A3006 RMK A01 T02670135  RH  046%=      5-min Rain = 0
KTAT 241635Z 06007G15KT 26/14 A3006 RMK A01 T02640138  RH  048%=      5-min Rain = 0
KTAT 241640Z 09008G14KT 27/13 A3006 RMK A01 T02700134  RH  045%=      5-min Rain = 0
KTAT 241645Z 08007KT 28/13 A3006 RMK A01 T02760132  RH  043%=      5-min Rain = 0
KTAT 241650Z 06006G14KT 27/13 A3006 RMK A01 T02710133  RH  044%=      5-min Rain = 0
KTAT 241655Z 07006G12KT 27/13 A3006 RMK A01 T02710131  RH  044%=      5-min Rain = 0
KTAT 241700Z 09010KT 28/13 A3006 RMK A01 T02790129  RH  041%=      5-min Rain = 0
KTAT 241705Z 10004G9KT 28/13 A3006 RMK A01 T02770130  RH  042%=      5-min Rain = 0
KTAT 241710Z 04006KT 27/12 A3006 RMK A01 T02720124  RH  041%=      5-min Rain = 0
KTAT 241715Z 08007KT 28/13 A3006 RMK A01 T02760126  RH  041%=      5-min Rain = 0
KTAT 241720Z 07006G13KT 28/12 A3006 RMK A01 T02820122  RH  039%=      5-min Rain = 0
KTAT 241725Z 08007G12KT 29/12 A3006 RMK A01 T02870124  RH  038%=      5-min Rain = 0
KTAT 241730Z 06007G12KT 29/12 A3006 RMK A01 T02880122  RH  037%=      5-min Rain = 0
KTAT 241735Z 08004KT 29/12 A3005 RMK A01 T02870120  RH  037%=      5-min Rain = 0
KTAT 241740Z 07005KT 29/12 A3005 RMK A01 T02870118  RH  037%=      5-min Rain = 0
KTAT 241745Z 11007KT 29/11 A3005 RMK A01 T02870110  RH  034%=      5-min Rain = 0
KTAT 241750Z 14003KT 29/11 A3005 RMK A01 T02890106  RH  033%=      5-min Rain = 0
KTAT 241755Z 17004KT 29/10 A3005 RMK A01 T02930103  RH  032%=      5-min Rain = 0
KTAT 241800Z 14005KT 29/10 A3005 RMK A01 T02940103  RH  031%=      5-min Rain = 0
KTAT 241805Z 14004G9KT 29/10 A3005 RMK A01 T02890101  RH  032%=      5-min Rain = 0
KTAT 241810Z 14007G12KT 30/10 A3005 RMK A01 T02990099  RH  030%=      5-min Rain = 0
KTAT 241815Z 16005KT 30/10 A3004 RMK A01 T03010096  RH  029%=      5-min Rain = 0
KTAT 241820Z 11005KT 31/10 A3004 RMK A01 T03060097  RH  028%=      5-min Rain = 0
KTAT 241825Z 12004G12KT 31/09 A3004 RMK A01 T03070093  RH  027%=      5-min Rain = 0
KTAT 241830Z 15006KT 30/09 A3004 RMK A01 T03040086  RH  027%=      5-min Rain = 0
KTAT 241835Z 13005G10KT 30/09 A3004 RMK A01 T02980086  RH  028%=      5-min Rain = 0
KTAT 241840Z 17006G12KT 31/08 A3004 RMK A01 T03080079  RH  025%=      5-min Rain = 0
KTAT 241845Z 17006KT 31/05 A3003 RMK A01 T03100054  RH  020%=      5-min Rain = 0
KTAT 241850Z 18005KT 31/06 A3003 RMK A01 T03100057  RH  021%=      5-min Rain = 0
KTAT 241855Z 24007G13KT 31/07 A3003 RMK A01 T03070065  RH  022%=      5-min Rain = 0
KTAT 241900Z 27003KT 31/06 A3003 RMK A01 T03060064  RH  022%=      5-min Rain = 0
KTAT 241905Z 29001KT 31/06 A3003 RMK A01 T03100063  RH  022%=      5-min Rain = 0
KTAT 241910Z 08003KT 31/07 A3003 RMK A01 T03110069  RH  023%=      5-min Rain = 0
KTAT 241915Z 09004KT 32/07 A3003 RMK A01 T03150067  RH  022%=      5-min Rain = 0
KTAT 241920Z 10005KT 32/08 A3003 RMK A01 T03190080  RH  023%=      5-min Rain = 0
KTAT 241925Z 15005G10KT 32/08 A3002 RMK A01 T03160076  RH  023%=      5-min Rain = 0
KTAT 241930Z 10005G10KT 32/08 A3002 RMK A01 T03150075  RH  023%=      5-min Rain = 0
KTAT 241935Z 09004KT 31/07 A3002 RMK A01 T03130071  RH  023%=      5-min Rain = 0
KTAT 241940Z 18004KT 32/06 A3002 RMK A01 T03170061  RH  021%=      5-min Rain = 0
KTAT 241945Z 18006KT 32/05 A3002 RMK A01 T03200051  RH  019%=      5-min Rain = 0
KTAT 241950Z 20004KT 32/05 A3002 RMK A01 T03230047  RH  018%=      5-min Rain = 0
KTAT 241955Z 19005G10KT 32/05 A3001 RMK A01 T03190054  RH  019%=      5-min Rain = 0
KTAT 242000Z 24004KT 32/06 A3001 RMK A01 T03160055  RH  020%=      5-min Rain = 0
KTAT 242005Z 20003KT 32/06 A3001 RMK A01 T03160058  RH  020%=      5-min Rain = 0
KTAT 242010Z 26003G8KT 31/06 A3001 RMK A01 T03130057  RH  020%=      5-min Rain = 0
KTAT 242015Z 17004G11KT 32/06 A3001 RMK A01 T03150063  RH  021%=      5-min Rain = 0
KTAT 242020Z 16007KT 33/07 A30 RMK A01 T03280065  RH  020%=      5-min Rain = 0
KTAT 242025Z 18006KT 32/07 A30 RMK A01 T03240065  RH  020%=      5-min Rain = 0
KTAT 242030Z 16003KT 32/07 A30 RMK A01 T03210067  RH  021%=      5-min Rain = 0
KTAT 242035Z 15004G9KT 31/07 A30 RMK A01 T03130073  RH  023%=      5-min Rain = 0
KTAT 242040Z 15008KT 32/08 A2999 RMK A01 T03180075  RH  023%=      5-min Rain = 0
KTAT 242045Z 16006G13KT 33/07 A2999 RMK A01 T03250072  RH  021%=      5-min Rain = 0
KTAT 242050Z 14008G13KT 32/08 A2999 RMK A01 T03230075  RH  022%=      5-min Rain = 0
KTAT 242055Z 14004KT 32/07 A2999 RMK A01 T03230074  RH  022%=      5-min Rain = 0
KTAT 242100Z 07003KT 32/07 A2999 RMK A01 T03220071  RH  021%=      5-min Rain = 0
KTAT 242105Z 11005G11KT 32/07 A2999 RMK A01 T03240074  RH  022%=      5-min Rain = 0
KTAT 242110Z 14003KT 33/07 A2998 RMK A01 T03260071  RH  021%=      5-min Rain = 0
KTAT 242115Z 13006G16KT 33/07 A2998 RMK A01 T03250073  RH  022%=      5-min Rain = 0
KTAT 242120Z 13008G13KT 32/07 A2998 RMK A01 T03220070  RH  021%=      5-min Rain = 0
KTAT 242125Z 10004KT 33/07 A2998 RMK A01 T03270071  RH  021%=      5-min Rain = 0
KTAT 242130Z 14007KT 33/07 A2997 RMK A01 T03330071  RH  020%=      5-min Rain = 0
KTAT 242135Z 11007KT 33/07 A2997 RMK A01 T03340068  RH  020%=      5-min Rain = 0
KTAT 242140Z 19010KT 34/06 A2997 RMK A01 T03370063  RH  019%=      5-min Rain = 0
KTAT 242145Z 20006KT 33/06 A2997 RMK A01 T03330063  RH  019%=      5-min Rain = 0
KTAT 242150Z 22005KT 33/07 A2997 RMK A01 T03290067  RH  020%=      5-min Rain = 0
KTAT 242155Z 16009G15KT 34/06 A2996 RMK A01 T03360063  RH  019%=      5-min Rain = 0
KTAT 242200Z 15006G11KT 34/05 A2996 RMK A01 T03390053  RH  017%=      5-min Rain = 0
KTAT 242205Z 16006KT 34/06 A2996 RMK A01 T03380059  RH  018%=      5-min Rain = 0
KTAT 242210Z 19006G11KT 34/05 A2996 RMK A01 T03420052  RH  017%=      5-min Rain = 0
KTAT 242215Z 14003KT 34/04 A2995 RMK A01 T03370042  RH  016%=      5-min Rain = 0
KTAT 242220Z 07003KT 34/04 A2995 RMK A01 T03360044  RH  016%=      5-min Rain = 0
KTAT 242225Z 11004G9KT 34/05 A2995 RMK A01 T03360048  RH  017%=      5-min Rain = 0
KTAT 242230Z 09003G9KT 33/05 A2995 RMK A01 T03330046  RH  017%=      5-min Rain = 0
KTAT 242235Z 11004KT 34/05 A2994 RMK A01 T03360045  RH  016%=      5-min Rain = 0
KTAT 242240Z 19001KT 33/04 A2994 RMK A01 T03270042  RH  017%=      5-min Rain = 0
KTAT 242245Z 22004G10KT 32/04 A2994 RMK A01 T03200040  RH  017%=      5-min Rain = 0
KTAT 242250Z 19006KT 33/03 A2994 RMK A01 T03260029  RH  016%=      5-min Rain = 0
KTAT 242255Z 18004G9KT 33/03 A2994 RMK A01 T03280028  RH  015%=      5-min Rain = 0
KTAT 242300Z 19005KT 33/03 A2993 RMK A01 T03280026  RH  015%=      5-min Rain = 0
KTAT 242305Z 18005KT 33/02 A2993 RMK A01 T03270024  RH  015%=      5-min Rain = 0
KTAT 242310Z 23002KT 33/02 A2993 RMK A01 T03300021  RH  014%=      5-min Rain = 0
KTAT 242315Z 17001KT 34/02 A2993 RMK A01 T03360024  RH  014%=      5-min Rain = 0
KTAT 242320Z 20002KT 34/03 A2992 RMK A01 T03410026  RH  014%=      5-min Rain = 0
KTAT 242325Z 19004KT 34/02 A2992 RMK A01 T03400023  RH  014%=      5-min Rain = 0
KTAT 242330Z 25003KT 33/02 A2992 RMK A01 T03330019  RH  014%=      5-min Rain = 0
KTAT 242335Z 12002KT 34/02 A2992 RMK A01 T03360024  RH  014%=      5-min Rain = 0
KTAT 242340Z 31004KT 34/02 A2991 RMK A01 T03400023  RH  014%=      5-min Rain = 0
KTAT 242345Z 31006G11KT 33/02 A2991 RMK A01 T03320016  RH  014%=      5-min Rain = 0
KTAT 242350Z 35004KT 33/02 A2991 RMK A01 T03300015  RH  014%=      5-min Rain = 0
KTAT 242355Z 27003KT 33/01 A2991 RMK A01 T03310011  RH  013%=      5-min Rain = 0
KTAT 250000Z 27009G15KT 34/M01 A2991 RMK A01 T03351014  RH  011%=      5-min Rain = 0
KTAT 250005Z 26013KT 33/M02 A2991 RMK A01 T03341024  RH  010%=      5-min Rain = 0
KTAT 250010Z 26012KT 33/M03 A2991 RMK A01 T03331025  RH  010%=      5-min Rain = 0
KTAT 250015Z 27009KT 33/M02 A2991 RMK A01 T03321023  RH  010%=      5-min Rain = 0
KTAT 250020Z 25010KT 33/M02 A2991 RMK A01 T03331024  RH  010%=      5-min Rain = 0
KTAT 250025Z 27007KT 33/M02 A2991 RMK A01 T03321024  RH  010%=      5-min Rain = 0
KTAT 250030Z 27011KT 33/M03 A2991 RMK A01 T03321034  RH  009%=      5-min Rain = 0
KTAT 250035Z 27010KT 33/M04 A2991 RMK A01 T03301036  RH  009%=      5-min Rain = 0
KTAT 250040Z 27011KT 33/M04 A2991 RMK A01 T03291038  RH  009%=      5-min Rain = 0
KTAT 250045Z 28009KT 33/M04 A2992 RMK A01 T03281038  RH  009%=      5-min Rain = 0
KTAT 250050Z 27009KT 33/M04 A2992 RMK A01 T03271035  RH  010%=      5-min Rain = 0
KTAT 250055Z 28009KT 33/M04 A2992 RMK A01 T03261036  RH  010%=      5-min Rain = 0
KTAT 250100Z 28007KT 33/M03 A2992 RMK A01 T03251029  RH  010%=      5-min Rain = 0
KTAT 250105Z 26006KT 32/M03 A2992 RMK A01 T03241028  RH  010%=      5-min Rain = 0
KTAT 250110Z 26007KT 32/M03 A2992 RMK A01 T03221027  RH  011%=      5-min Rain = 0
KTAT 250115Z 27006KT 32/M03 A2992 RMK A01 T03201028  RH  011%=      5-min Rain = 0
KTAT 250120Z 27006KT 32/M02 A2993 RMK A01 T03181023  RH  011%=      5-min Rain = 0
KTAT 250125Z 27006KT 31/M02 A2993 RMK A01 T03141020  RH  012%=      5-min Rain = 0
KTAT 250130Z 27006KT 31/M02 A2993 RMK A01 T03091016  RH  012%=      5-min Rain = 0
KTAT 250135Z 27006KT 30/M02 A2993 RMK A01 T03031016  RH  013%=      5-min Rain = 0
KTAT 250140Z 27006KT 30/M01 A2993 RMK A01 T02981012  RH  013%=      5-min Rain = 0
KTAT 250145Z 27005KT 29/M01 A2993 RMK A01 T02911007  RH  015%=      5-min Rain = 0
KTAT 250150Z 27005KT 28/M01 A2993 RMK A01 T02841005  RH  015%=      5-min Rain = 0
KTAT 250155Z 26005KT 28/M01 A2993 RMK A01 T02811007  RH  016%=      5-min Rain = 0
KTAT 250200Z 24004KT 28/M01 A2993 RMK A01 T02801006  RH  016%=      5-min Rain = 0
KTAT 250205Z 23003KT 27/00 A2993 RMK A01 T02710003  RH  018%=      5-min Rain = 0
KTAT 250210Z 22004KT 26/01 A2993 RMK A01 T02610012  RH  020%=      5-min Rain = 0
KTAT 250215Z 22003KT 26/01 A2993 RMK A01 T02560012  RH  021%=      5-min Rain = 0
KTAT 250220Z 22002KT 26/01 A2994 RMK A01 T02570008  RH  020%=      5-min Rain = 0
KTAT 250225Z 21001KT 26/01 A2994 RMK A01 T02550009  RH  020%=      5-min Rain = 0
KTAT 250230Z 17002KT 25/01 A2994 RMK A01 T02500010  RH  021%=      5-min Rain = 0
KTAT 250235Z 16002KT 25/00 A2994 RMK A01 T02460004  RH  021%=      5-min Rain = 0
KTAT 250240Z 16002KT 25/00 A2994 RMK A01 T025000-0  RH  019%=      5-min Rain = 0
KTAT 250245Z 15002KT 25/00 A2994 RMK A01 T02460003  RH  020%=      5-min Rain = 0
KTAT 250250Z 15003KT 24/01 A2995 RMK A01 T02390008  RH  022%=      5-min Rain = 0
KTAT 250255Z 13003KT 23/00 A2995 RMK A01 T02330004  RH  022%=      5-min Rain = 0
KTAT 250300Z 11003KT 23/00 A2995 RMK A01 T02290003  RH  023%=      5-min Rain = 0
KTAT 250305Z 10004KT 23/01 A2995 RMK A01 T02260014  RH  025%=      5-min Rain = 0
KTAT 250310Z 09004KT 22/02 A2995 RMK A01 T02240017  RH  026%=      5-min Rain = 0
KTAT 250315Z 09009G20KT 22/02 A2996 RMK A01 T02210016  RH  026%=      5-min Rain = 0
KTAT 250320Z 11014KT 23/12 A2997 RMK A01 T02320119  RH  051%=      5-min Rain = 0
KTAT 250325Z 10013G18KT 24/14 A2997 RMK A01 T02370135  RH  055%=      5-min Rain = 0
KTAT 250330Z 11013KT 24/15 A2997 RMK A01 T02370149  RH  061%=      5-min Rain = 0
KTAT 250335Z 11014KT 24/16 A2997 RMK A01 T02380158  RH  064%=      5-min Rain = 0
KTAT 250340Z 12014KT 24/16 A2998 RMK A01 T02380159  RH  064%=      5-min Rain = 0
KTAT 250345Z 11013KT 24/16 A2998 RMK A01 T02370158  RH  064%=      5-min Rain = 0
KTAT 250350Z 11017G25KT 24/16 A2998 RMK A01 T02360162  RH  066%=      5-min Rain = 0
KTAT 250355Z 12019G24KT 24/16 A2998 RMK A01 T02370164  RH  067%=      5-min Rain = 0
KTAT 250400Z 11017G24KT 24/16 A2999 RMK A01 T02350163  RH  067%=      5-min Rain = 0
KTAT 250405Z 11018G25KT 23/17 A2999 RMK A01 T02340168  RH  070%=      5-min Rain = 0
KTAT 250410Z 11018G25KT 23/17 A2999 RMK A01 T02330173  RH  073%=      5-min Rain = 0
KTAT 250415Z 11020G27KT 24/17 A30 RMK A01 T02350174  RH  072%=      5-min Rain = 0
KTAT 250420Z 12018G25KT 23/17 A30 RMK A01 T02330173  RH  072%=      5-min Rain = 0
KTAT 250425Z 12020G26KT 23/17 A30 RMK A01 T02320172  RH  073%=      5-min Rain = 0
KTAT 250430Z 12019G25KT 23/17 A30 RMK A01 T02300170  RH  072%=      5-min Rain = 0
KTAT 250435Z 12020G27KT 23/17 A30 RMK A01 T02290168  RH  072%=      5-min Rain = 0
KTAT 250440Z 12019G25KT 23/17 A30 RMK A01 T02270166  RH  072%=      5-min Rain = 0
KTAT 250445Z 12019G24KT 23/17 A30 RMK A01 T02260166  RH  072%=      5-min Rain = 0
KTAT 250450Z 12017G23KT 22/17 A30 RMK A01 T02240166  RH  073%=      5-min Rain = 0
KTAT 250455Z 12017G23KT 22/17 A3001 RMK A01 T02230166  RH  074%=      5-min Rain = 0

Page generated in 0.0101 seconds.